Terminal Aerodrome Forecast
Issued by NWS Blacksburg, VA

Current Version | Previous Version | Text Only | Print | Product List | Glossary Off
Versions: 1 2 3 4 5 6 7 8 9 10 11 12 13 14 15 16

000
FTUS41 KRNK 280119 AAA
TAFBLF
TAF AMD
KBLF 280119Z 2801/2824 14005KT P6SM SCT040
      TEMPO 2801/2802 5SM -SHRA OVC035
     FM280200 10004KT P6SM SCT040
     FM280700 VRB03KT P6SM BKN035
     FM281400 11005KT P6SM FEW040=

USA.gov is the U.S. government's official web portal to all federal, state and local government web resources and services.